Time;durP1;ratioP1;P1;durP2;ratioP2;P2;SDS_P1;SDS_P2;PMS_P1;PMS_P2;Temp;Humidity;BMP_temperature;BMP_pressure;BME280_temperature;BME280_humidity;BME280_pressure;Samples;Min_cycle;Max_cycle;Signal;HPM_P1;HPM_P2
2024/02/22 00:02:16;;;;;;;3.00;2.00;;;;;;;5.08;82.96;96296.54;108851;1271;24233;-74
2024/02/22 00:04:48;;;;;;;4.20;2.10;;;;;;;5.14;82.61;96292.90;108860;1271;23982;-75
2024/02/22 00:07:23;;;;;;;5.70;2.40;;;;;;;5.22;82.59;96284.98;108793;1271;24191;-75
2024/02/22 00:10:11;;;;;;;5.20;2.10;;;;;;;5.36;82.13;96285.60;108836;1271;22529;-75
2024/02/22 00:12:51;;;;;;;5.10;2.20;;;;;;;5.46;81.39;96281.87;108881;1268;22920;-75
2024/02/22 00:15:32;;;;;;;4.80;2.40;;;;;;;5.52;81.10;96282.66;108856;1271;26726;-75
2024/02/22 00:18:09;;;;;;;3.80;2.80;;;;;;;5.60;79.55;96280.75;108734;1271;148644;-75
2024/02/22 00:20:43;;;;;;;5.10;2.30;;;;;;;5.65;79.70;96275.70;108894;1271;26772;-74
2024/02/22 00:23:15;;;;;;;6.50;2.80;;;;;;;5.61;79.27;96283.59;108866;1271;22539;-75
2024/02/22 00:25:47;;;;;;;5.90;2.30;;;;;;;5.60;78.97;96270.45;108881;1268;25424;-75
2024/02/22 00:28:20;;;;;;;6.60;2.40;;;;;;;5.60;78.49;96271.44;108869;1271;22794;-75
2024/02/22 00:30:52;;;;;;;4.10;1.80;;;;;;;5.58;78.17;96271.90;108865;1271;22597;-75
2024/02/22 00:33:24;;;;;;;7.70;2.60;;;;;;;5.58;77.88;96265.54;108810;1271;23804;-75
2024/02/22 00:35:57;;;;;;;6.00;2.30;;;;;;;5.53;77.94;96272.73;108899;1268;24152;-75
2024/02/22 00:38:32;;;;;;;4.70;2.10;;;;;;;5.46;77.90;96270.14;108851;1271;22517;-75
2024/02/22 00:41:06;;;;;;;5.40;2.40;;;;;;;5.41;77.99;96264.88;108884;1271;22520;-74
2024/02/22 00:43:43;;;;;;;3.40;1.70;;;;;;;5.41;78.22;96255.98;108830;1271;24383;-75
2024/02/22 00:46:14;;;;;;;6.90;2.60;;;;;;;5.41;78.02;96249.30;108857;1271;24037;-75
2024/02/22 00:48:47;;;;;;;5.60;2.50;;;;;;;5.39;77.81;96254.61;108853;1258;22533;-75
2024/02/22 00:51:21;;;;;;;6.60;2.50;;;;;;;5.39;77.63;96245.92;108798;1271;25443;-75
2024/02/22 00:53:57;;;;;;;6.30;2.30;;;;;;;5.39;77.47;96241.30;108855;1271;22517;-75
2024/02/22 00:56:37;;;;;;;8.10;2.70;;;;;;;5.34;77.30;96239.75;108845;1271;22509;-75
2024/02/22 00:59:10;;;;;;;7.90;2.20;;;;;;;5.33;77.06;96235.46;108796;1271;25609;-75
2024/02/22 01:01:42;;;;;;;4.90;2.50;;;;;;;5.32;76.77;96227.37;108805;1266;22537;-75
2024/02/22 01:04:20;;;;;;;4.70;2.60;;;;;;;5.30;76.74;96226.36;108848;1268;25963;-75
2024/02/22 01:06:57;;;;;;;5.70;2.60;;;;;;;5.31;76.63;96208.48;108839;1271;23812;-75
2024/02/22 01:09:33;;;;;;;5.40;3.00;;;;;;;5.27;76.26;96207.59;108890;1271;23499;-74
2024/02/22 01:12:06;;;;;;;5.90;2.90;;;;;;;5.24;76.34;96206.21;108815;1271;25371;-75
2024/02/22 01:14:38;;;;;;;10.10;2.90;;;;;;;5.19;76.46;96204.27;108918;1271;22526;-75
2024/02/22 01:17:14;;;;;;;4.70;2.40;;;;;;;5.13;76.42;96207.81;108851;1270;24210;-75
2024/02/22 01:19:45;;;;;;;8.90;2.80;;;;;;;5.11;76.39;96210.48;108838;1255;25674;-75
2024/02/22 01:22:17;;;;;;;5.70;2.70;;;;;;;5.10;76.37;96209.33;108866;1266;22601;-75
2024/02/22 01:24:50;;;;;;;5.00;2.40;;;;;;;5.06;76.30;96201.24;108839;1268;23800;-75
2024/02/22 01:27:21;;;;;;;6.70;2.90;;;;;;;5.04;76.27;96197.55;108894;1271;23494;-74
2024/02/22 01:29:54;;;;;;;5.00;2.00;;;;;;;5.05;76.31;96202.18;108826;1271;22529;-75
2024/02/22 01:32:28;;;;;;;5.30;2.50;;;;;;;5.06;76.28;96190.95;108898;1268;25416;-75
2024/02/22 01:35:05;;;;;;;5.60;2.30;;;;;;;5.05;76.00;96194.09;108829;1268;22614;-74
2024/02/22 01:37:36;;;;;;;6.20;2.80;;;;;;;5.04;76.04;96186.77;108865;1268;22566;-75
2024/02/22 01:40:12;;;;;;;6.50;2.70;;;;;;;5.02;75.97;96189.60;108839;1272;22564;-75
2024/02/22 01:42:45;;;;;;;5.20;2.60;;;;;;;4.99;75.94;96178.73;108913;1272;22587;-75
2024/02/22 01:45:16;;;;;;;6.10;2.90;;;;;;;4.96;76.13;96179.02;108815;1268;22532;-74
2024/02/22 01:47:53;;;;;;;5.40;2.80;;;;;;;4.93;75.92;96174.48;108872;1268;25410;-75
2024/02/22 01:50:31;;;;;;;3.50;2.00;;;;;;;4.94;75.90;96175.44;108899;1272;22520;-75
2024/02/22 01:53:09;;;;;;;4.80;2.00;;;;;;;5.01;75.80;96172.64;108835;1271;22670;-75
2024/02/22 01:55:42;;;;;;;3.00;2.00;;;;;;;5.08;75.59;96169.38;108893;1271;22575;-75
2024/02/22 01:58:15;;;;;;;7.10;2.80;;;;;;;5.06;75.40;96173.92;108871;1271;22567;-75
2024/02/22 02:00:50;;;;;;;7.60;3.10;;;;;;;5.07;75.25;96165.75;108859;1268;26760;-75
2024/02/22 02:03:23;;;;;;;4.90;2.50;;;;;;;5.03;75.19;96166.76;108885;1268;22596;-74
2024/02/22 02:05:55;;;;;;;6.30;2.60;;;;;;;5.05;75.18;96163.61;108800;1266;22690;-75
2024/02/22 02:08:29;;;;;;;4.80;2.60;;;;;;;5.04;75.26;96159.35;108872;1271;22704;-75
2024/02/22 02:11:05;;;;;;;6.10;3.00;;;;;;;5.05;75.04;96156.83;108818;1272;22714;-75
2024/02/22 02:13:39;;;;;;;5.10;2.60;;;;;;;5.04;74.93;96149.84;108795;1272;22524;-75
2024/02/22 02:16:10;;;;;;;4.90;2.50;;;;;;;5.06;74.85;96142.98;108855;1271;22603;-74
2024/02/22 02:18:44;;;;;;;6.00;2.90;;;;;;;5.12;74.88;96142.28;108803;1266;22525;-75
2024/02/22 02:21:21;;;;;;;4.10;2.80;;;;;;;5.15;74.78;96141.87;108796;1271;28385;-75
2024/02/22 02:24:08;;;;;;;5.60;3.00;;;;;;;5.25;74.65;96130.05;108967;1271;24272;-75
2024/02/22 02:26:40;;;;;;;4.50;2.70;;;;;;;5.31;74.29;96127.75;108817;1271;25409;-74
2024/02/22 02:29:14;;;;;;;5.70;2.60;;;;;;;5.39;73.83;96122.19;108832;1265;22576;-75
2024/02/22 02:31:52;;;;;;;5.40;2.30;;;;;;;5.47;73.48;96117.88;108837;1271;22564;-74
2024/02/22 02:34:25;;;;;;;6.70;2.50;;;;;;;5.48;73.46;96112.20;108812;1257;22525;-72
2024/02/22 02:37:00;;;;;;;3.90;2.30;;;;;;;5.52;72.93;96102.98;108883;1271;25671;-74
2024/02/22 02:39:33;;;;;;;6.00;2.70;;;;;;;5.63;72.41;96105.02;108825;1271;22537;-75
2024/02/22 02:42:10;;;;;;;5.40;2.50;;;;;;;5.74;72.13;96098.98;108833;1268;22633;-75
2024/02/22 02:44:42;;;;;;;2.90;1.70;;;;;;;5.76;71.36;96096.36;108830;1272;22608;-75
2024/02/22 02:47:16;;;;;;;4.10;2.00;;;;;;;5.79;70.89;96084.60;108831;1271;22524;-74
2024/02/22 02:49:47;;;;;;;4.00;2.20;;;;;;;5.78;70.61;96088.38;108815;1265;22696;-75
2024/02/22 02:52:18;;;;;;;7.00;2.70;;;;;;;5.79;70.17;96082.66;108819;1271;22560;-72
2024/02/22 02:54:52;;;;;;;3.50;2.40;;;;;;;5.81;69.66;96078.39;108838;1271;22987;-72
2024/02/22 02:57:26;;;;;;;5.10;2.30;;;;;;;5.83;69.23;96074.24;108841;1272;22530;-72
2024/02/22 03:00:00;;;;;;;5.80;3.00;;;;;;;5.80;69.23;96075.30;108826;1268;22608;-72
2024/02/22 03:02:33;;;;;;;6.30;2.10;;;;;;;5.71;69.50;96075.52;108830;1272;25401;-72
2024/02/22 03:05:13;;;;;;;5.60;1.90;;;;;;;5.63;69.30;96068.09;108845;1272;22682;-72
2024/02/22 03:07:47;;;;;;;5.60;2.40;;;;;;;5.59;69.51;96065.18;108821;1272;23975;-72
2024/02/22 03:10:23;;;;;;;4.50;2.10;;;;;;;5.55;69.71;96062.77;108817;1271;25421;-72
2024/02/22 03:12:55;;;;;;;3.80;1.90;;;;;;;5.56;69.32;96057.04;108832;1272;25063;-75
2024/02/22 03:15:27;;;;;;;5.10;2.10;;;;;;;5.55;69.36;96054.67;108855;1272;22517;-74
2024/02/22 03:18:09;;;;;;;3.40;1.90;;;;;;;5.62;68.86;96044.32;108905;1253;22710;-75
2024/02/22 03:20:45;;;;;;;3.90;2.50;;;;;;;5.64;69.02;96044.34;108857;1267;22546;-74
2024/02/22 03:23:16;;;;;;;4.80;2.50;;;;;;;5.62;69.02;96050.77;108880;1271;22524;-75
2024/02/22 03:25:52;;;;;;;4.10;2.30;;;;;;;5.69;68.91;96050.80;108857;1271;22640;-75
2024/02/22 03:28:24;;;;;;;4.10;1.80;;;;;;;5.76;68.64;96039.14;108880;1259;24472;-74
2024/02/22 03:30:55;;;;;;;4.80;2.20;;;;;;;5.78;68.42;96034.25;108854;1272;24056;-75
2024/02/22 03:33:29;;;;;;;3.20;2.20;;;;;;;5.82;67.81;96031.05;108889;1272;22983;-75
2024/02/22 03:36:06;;;;;;;4.20;1.70;;;;;;;5.84;67.29;96034.36;108869;1271;25587;-75
2024/02/22 03:38:38;;;;;;;4.40;2.00;;;;;;;5.87;67.65;96032.25;108864;1268;25509;-74
2024/02/22 03:41:12;;;;;;;5.60;2.10;;;;;;;5.82;67.39;96032.98;108823;1271;22542;-75
2024/02/22 03:43:46;;;;;;;3.20;1.90;;;;;;;5.82;67.21;96028.21;108856;1270;22556;-74
2024/02/22 03:46:19;;;;;;;2.30;1.50;;;;;;;5.81;67.41;96031.63;108828;1271;22577;-74
2024/02/22 03:48:52;;;;;;;4.30;2.50;;;;;;;5.77;67.41;96017.46;108858;1271;24200;-74
2024/02/22 03:51:24;;;;;;;5.40;2.10;;;;;;;5.76;67.64;96025.55;108848;1271;22667;-75
2024/02/22 03:54:03;;;;;;;5.00;2.60;;;;;;;5.82;67.06;96025.41;108880;1271;22524;-74
2024/02/22 03:56:35;;;;;;;3.80;2.40;;;;;;;5.92;67.02;96016.15;108847;1271;24191;-75
2024/02/22 03:59:07;;;;;;;3.10;2.20;;;;;;;5.90;67.03;96021.70;108822;1269;23849;-74
2024/02/22 04:01:40;;;;;;;3.70;2.40;;;;;;;5.81;67.38;96016.42;108899;1271;22593;-75
2024/02/22 04:04:14;;;;;;;4.00;2.50;;;;;;;5.73;67.57;96011.63;108825;1271;22520;-75
2024/02/22 04:06:50;;;;;;;4.80;2.20;;;;;;;5.70;67.52;96004.89;108827;1271;22542;-75
2024/02/22 04:09:22;;;;;;;3.40;2.00;;;;;;;5.80;67.47;96007.42;108863;1271;24233;-75
2024/02/22 04:11:54;;;;;;;4.80;2.30;;;;;;;5.83;67.32;96008.52;108869;1271;22610;-74
2024/02/22 04:14:26;;;;;;;3.70;2.50;;;;;;;5.85;67.33;96000.58;108838;1271;22526;-74
2024/02/22 04:17:04;;;;;;;5.50;2.50;;;;;;;5.87;67.26;96007.38;108851;1271;22521;-73
2024/02/22 04:19:38;;;;;;;2.70;1.60;;;;;;;5.96;67.14;96001.52;108881;1271;22529;-74
2024/02/22 04:22:11;;;;;;;4.20;2.30;;;;;;;6.08;66.57;95994.73;108783;1267;22708;-74
2024/02/22 04:24:48;;;;;;;5.50;1.90;;;;;;;6.15;66.42;95993.81;108852;1272;22521;-74
2024/02/22 04:27:21;;;;;;;3.30;1.80;;;;;;;6.15;66.04;95989.97;108866;1271;22528;-74
2024/02/22 04:29:56;;;;;;;3.40;2.10;;;;;;;6.22;65.58;95985.72;108860;1271;22551;-74
2024/02/22 04:32:33;;;;;;;6.10;2.50;;;;;;;6.27;65.53;95973.80;108837;1267;22565;-74
2024/02/22 04:35:11;;;;;;;5.40;2.50;;;;;;;6.27;65.43;95973.06;108859;1271;22525;-74
2024/02/22 04:37:44;;;;;;;5.90;2.00;;;;;;;6.23;65.56;95973.19;108821;1267;22528;-74
2024/02/22 04:40:16;;;;;;;4.70;2.50;;;;;;;6.20;65.30;95975.73;108838;1271;22536;-74
2024/02/22 04:42:49;;;;;;;4.80;2.40;;;;;;;6.15;65.27;95968.60;108878;1271;22520;-74
2024/02/22 04:45:23;;;;;;;5.70;2.20;;;;;;;6.07;65.52;95963.46;108846;1269;23581;-74
2024/02/22 04:47:56;;;;;;;5.50;2.50;;;;;;;6.01;65.69;95956.94;108841;1266;25521;-74
2024/02/22 04:50:27;;;;;;;4.90;2.80;;;;;;;5.95;65.68;95954.11;108862;1271;22532;-74
2024/02/22 04:53:03;;;;;;;2.90;1.70;;;;;;;5.89;65.94;95949.77;108910;1272;25424;-74
2024/02/22 04:55:38;;;;;;;4.50;2.40;;;;;;;5.83;65.89;95945.93;108953;1271;22531;-74
2024/02/22 04:58:10;;;;;;;5.00;2.60;;;;;;;5.82;66.03;95942.41;108836;1266;24159;-74
2024/02/22 05:00:44;;;;;;;4.50;2.10;;;;;;;5.85;65.92;95940.77;108867;1270;23202;-74
2024/02/22 05:03:16;;;;;;;5.20;2.50;;;;;;;5.87;65.90;95944.23;108867;1271;22565;-74
2024/02/22 05:05:53;;;;;;;4.60;2.50;;;;;;;5.95;65.72;95935.65;108847;1271;22626;-74
2024/02/22 05:08:28;;;;;;;4.90;2.60;;;;;;;5.99;65.69;95933.58;108877;1271;22527;-74
2024/02/22 05:11:02;;;;;;;4.50;2.20;;;;;;;5.97;65.83;95929.69;108812;1271;24182;-74
2024/02/22 05:13:39;;;;;;;3.60;2.30;;;;;;;5.99;65.83;95930.21;108881;1272;22640;-74
2024/02/22 05:16:14;;;;;;;5.00;2.30;;;;;;;6.02;65.97;95925.52;108873;1266;22806;-74
2024/02/22 05:18:45;;;;;;;5.50;1.90;;;;;;;6.03;65.78;95920.63;108866;1271;25624;-74
2024/02/22 05:21:16;;;;;;;5.00;2.00;;;;;;;6.10;65.71;95920.98;108839;1269;22586;-74
2024/02/22 05:23:48;;;;;;;4.40;2.10;;;;;;;6.11;65.50;95921.77;108837;1271;25480;-74
2024/02/22 05:26:22;;;;;;;3.90;2.10;;;;;;;6.17;65.54;95915.66;108872;1270;25372;-74
2024/02/22 05:28:55;;;;;;;6.30;2.50;;;;;;;6.24;65.05;95919.23;108850;1271;22524;-74
2024/02/22 05:31:28;;;;;;;3.20;1.80;;;;;;;6.23;65.16;95917.70;108830;1267;22541;-74
2024/02/22 05:34:00;;;;;;;6.50;2.90;;;;;;;6.16;65.19;95919.87;108906;1271;22744;-74
2024/02/22 05:36:35;;;;;;;5.60;2.10;;;;;;;6.10;65.38;95916.99;108869;1271;22678;-74
2024/02/22 05:39:09;;;;;;;3.50;2.20;;;;;;;6.08;65.40;95923.52;108775;1254;22525;-74
2024/02/22 05:41:45;;;;;;;3.70;2.00;;;;;;;6.11;65.58;95925.89;108906;1271;24015;-74
2024/02/22 05:44:17;;;;;;;4.80;2.30;;;;;;;6.17;65.46;95927.44;108882;1266;22540;-74
2024/02/22 05:46:51;;;;;;;3.90;2.20;;;;;;;6.19;65.27;95919.61;108858;1270;22532;-74
2024/02/22 05:49:24;;;;;;;3.20;2.00;;;;;;;6.17;65.32;95912.80;108834;1271;24228;-74
2024/02/22 05:51:58;;;;;;;4.50;2.50;;;;;;;6.18;65.22;95920.33;108839;1261;22517;-74
2024/02/22 05:54:32;;;;;;;5.80;2.80;;;;;;;6.22;65.25;95923.45;108880;1271;25277;-73
2024/02/22 05:57:04;;;;;;;3.70;2.00;;;;;;;6.20;65.15;95911.86;108902;1271;23941;-73
2024/02/22 05:59:43;;;;;;;3.50;1.80;;;;;;;6.19;65.57;95911.48;108833;1270;26662;-73
2024/02/22 06:02:22;;;;;;;4.20;2.40;;;;;;;6.19;65.57;95912.45;108843;1272;23794;-74
2024/02/22 06:04:53;;;;;;;7.90;2.50;;;;;;;6.20;65.51;95920.72;108870;1271;22528;-73
2024/02/22 06:07:26;;;;;;;5.20;2.70;;;;;;;6.19;65.52;95924.48;108872;1271;25433;-74
2024/02/22 06:10:03;;;;;;;4.00;2.30;;;;;;;6.16;65.71;95926.70;108821;1271;23740;-73
2024/02/22 06:12:35;;;;;;;4.60;2.30;;;;;;;6.16;65.95;95935.55;108897;1264;25584;-73
2024/02/22 06:15:08;;;;;;;3.60;2.30;;;;;;;6.17;66.05;95944.75;108895;1272;23986;-73
2024/02/22 06:17:42;;;;;;;3.20;2.40;;;;;;;6.20;65.95;95934.30;108855;1269;24216;-74
2024/02/22 06:20:15;;;;;;;2.90;2.20;;;;;;;6.19;66.26;95932.50;108804;1272;25536;-73
2024/02/22 06:22:47;;;;;;;7.30;2.90;;;;;;;6.18;66.17;95935.74;108886;1272;24271;-73
2024/02/22 06:25:18;;;;;;;4.40;2.70;;;;;;;6.17;66.30;95931.13;108866;1271;24226;-73
2024/02/22 06:27:51;;;;;;;7.30;2.80;;;;;;;6.16;66.28;95925.49;108928;1267;22524;-74
2024/02/22 06:30:22;;;;;;;5.90;2.50;;;;;;;6.15;66.53;95930.18;108873;1267;22583;-73
2024/02/22 06:32:57;;;;;;;5.30;2.70;;;;;;;6.15;66.32;95922.14;108891;1272;22534;-73
2024/02/22 06:35:36;;;;;;;5.10;3.00;;;;;;;6.15;66.37;95916.66;108894;1272;22511;-73
2024/02/22 06:38:09;;;;;;;3.50;2.00;;;;;;;6.15;66.41;95919.81;108883;1270;22694;-73
2024/02/22 06:40:49;;;;;;;5.10;2.70;;;;;;;6.18;66.45;95914.42;108894;1272;25289;-73
2024/02/22 06:43:21;;;;;;;4.40;2.00;;;;;;;6.19;66.45;95914.51;108842;1272;22572;-74
2024/02/22 06:45:58;;;;;;;5.30;2.50;;;;;;;6.21;66.54;95904.72;108910;1272;25462;-74
2024/02/22 06:48:29;;;;;;;4.40;2.50;;;;;;;6.24;66.62;95911.48;108853;1271;22673;-73
2024/02/22 06:51:02;;;;;;;5.30;2.40;;;;;;;6.30;66.50;95910.14;108896;1272;26464;-74
2024/02/22 06:53:34;;;;;;;5.90;2.30;;;;;;;6.32;66.75;95912.81;108865;1271;22722;-73
2024/02/22 06:56:06;;;;;;;5.60;2.60;;;;;;;6.35;66.55;95914.30;108907;1267;25590;-74
2024/02/22 06:58:37;;;;;;;3.90;2.50;;;;;;;6.41;66.71;95899.27;108860;1272;22525;-73
2024/02/22 07:01:11;;;;;;;5.40;2.50;;;;;;;6.49;66.45;95898.04;108872;1270;22514;-74
2024/02/22 07:03:47;;;;;;;3.90;2.20;;;;;;;6.56;66.55;95897.42;108864;1267;22627;-74
2024/02/22 07:06:18;;;;;;;4.70;2.40;;;;;;;6.60;66.63;95894.66;108850;1271;25664;-74
2024/02/22 07:08:53;;;;;;;4.10;2.10;;;;;;;6.62;66.45;95889.39;108834;1272;22520;-74
2024/02/22 07:11:27;;;;;;;5.30;2.60;;;;;;;6.64;66.54;95888.83;108887;1271;22527;-74
2024/02/22 07:14:00;;;;;;;5.10;2.50;;;;;;;6.65;66.53;95881.80;108886;1272;22520;-74
2024/02/22 07:16:34;;;;;;;4.00;2.60;;;;;;;6.67;66.67;95879.53;108896;1271;23597;-74
2024/02/22 07:19:06;;;;;;;5.90;2.30;;;;;;;6.71;66.65;95870.17;108866;1272;22532;-74
2024/02/22 07:21:42;;;;;;;5.20;2.20;;;;;;;6.72;66.77;95863.79;108920;1257;22786;-74
2024/02/22 07:24:13;;;;;;;4.70;2.70;;;;;;;6.74;66.76;95858.05;108889;1267;22709;-74
2024/02/22 07:26:46;;;;;;;4.60;2.30;;;;;;;6.79;66.80;95857.87;108906;1267;22696;-74
2024/02/22 07:29:18;;;;;;;4.60;2.90;;;;;;;6.82;66.71;95851.68;108866;1265;25421;-74
2024/02/22 07:31:54;;;;;;;3.70;2.30;;;;;;;6.84;66.65;95839.92;108945;1271;22520;-74
2024/02/22 07:34:25;;;;;;;3.10;2.00;;;;;;;6.86;66.48;95841.33;108876;1267;22538;-74
2024/02/22 07:36:56;;;;;;;5.90;3.00;;;;;;;6.87;66.27;95843.89;108917;1265;23929;-74
2024/02/22 07:39:27;;;;;;;4.30;2.40;;;;;;;6.88;66.16;95840.63;108880;1254;22542;-74
2024/02/22 07:42:07;;;;;;;2.90;1.30;;;;;;;6.91;66.34;95846.16;108871;1271;22539;-74
2024/02/22 07:44:44;;;;;;;5.70;3.30;;;;;;;6.92;66.24;95837.35;108826;1271;23845;-74
2024/02/22 07:47:16;;;;;;;5.90;2.70;;;;;;;6.94;66.39;95833.81;108839;1271;22543;-74
2024/02/22 07:49:48;;;;;;;3.70;2.00;;;;;;;6.97;66.35;95829.08;108853;1267;22627;-74
2024/02/22 07:52:24;;;;;;;5.40;3.10;;;;;;;6.99;66.44;95821.11;108849;1267;22526;-74
2024/02/22 07:55:00;;;;;;;8.00;3.10;;;;;;;7.00;66.36;95823.58;108852;1271;22514;-74
2024/02/22 07:57:32;;;;;;;5.10;2.80;;;;;;;7.02;66.51;95813.45;108849;1267;22574;-74
2024/02/22 08:00:07;;;;;;;6.10;2.80;;;;;;;7.08;66.58;95814.09;108878;1271;23869;-74
2024/02/22 08:02:39;;;;;;;5.80;3.00;;;;;;;7.16;66.51;95806.13;108855;1271;22592;-75
2024/02/22 08:05:11;;;;;;;3.10;2.10;;;;;;;7.23;66.40;95798.75;108875;1267;22534;-74
2024/02/22 08:07:43;;;;;;;6.10;2.90;;;;;;;7.28;66.33;95796.53;108881;1271;22555;-74
2024/02/22 08:10:17;;;;;;;6.60;3.30;;;;;;;7.29;66.35;95798.79;108840;1271;22522;-74
2024/02/22 08:12:52;;;;;;;6.10;2.60;;;;;;;7.26;66.34;95792.44;108886;1271;25569;-75
2024/02/22 08:15:28;;;;;;;4.90;2.70;;;;;;;7.23;66.37;95788.78;108924;1266;22517;-74
2024/02/22 08:18:05;;;;;;;5.10;3.30;;;;;;;7.26;66.29;95779.52;108912;1265;22534;-74
2024/02/22 08:20:37;;;;;;;8.20;3.30;;;;;;;7.35;66.57;95769.48;108780;1267;25256;-75
2024/02/22 08:23:14;;;;;;;7.50;3.50;;;;;;;7.51;66.63;95762.11;108853;1271;25347;-74
2024/02/22 08:25:48;;;;;;;5.90;3.10;;;;;;;7.67;66.65;95757.13;108872;1271;24130;-74
2024/02/22 08:28:19;;;;;;;6.50;3.40;;;;;;;7.75;66.22;95757.70;108878;1271;23836;-74
2024/02/22 08:30:50;;;;;;;4.80;2.60;;;;;;;7.73;65.94;95751.80;108864;1271;22596;-74
2024/02/22 08:33:24;;;;;;;4.90;2.30;;;;;;;7.65;65.86;95749.09;108834;1271;22522;-74
2024/02/22 08:35:57;;;;;;;5.40;2.60;;;;;;;7.69;65.85;95751.05;108842;1271;25439;-74
2024/02/22 08:38:31;;;;;;;4.80;2.70;;;;;;;7.72;65.88;95740.94;108880;1271;22517;-74
2024/02/22 08:41:06;;;;;;;5.80;3.00;;;;;;;7.82;65.95;95739.09;108809;1271;23496;-74
2024/02/22 08:43:43;;;;;;;5.50;2.90;;;;;;;7.90;65.86;95728.08;108826;1271;25494;-74
2024/02/22 08:46:16;;;;;;;5.30;3.00;;;;;;;7.96;65.75;95724.40;108858;1267;22558;-74
2024/02/22 08:48:50;;;;;;;4.50;2.30;;;;;;;8.05;65.88;95712.21;108897;1264;25953;-74
2024/02/22 08:51:25;;;;;;;6.80;3.00;;;;;;;8.07;65.20;95711.29;108857;1271;22532;-74
2024/02/22 08:54:01;;;;;;;6.40;3.10;;;;;;;8.11;65.31;95710.13;108886;1271;25419;-74
2024/02/22 08:56:41;;;;;;;6.70;3.00;;;;;;;8.15;65.06;95702.89;108867;1271;23412;-74
2024/02/22 08:59:14;;;;;;;4.00;2.50;;;;;;;8.18;65.01;95699.64;108825;1269;25414;-74
2024/02/22 09:01:49;;;;;;;6.30;3.00;;;;;;;8.27;64.83;95698.86;108866;1264;22518;-74
2024/02/22 09:04:26;;;;;;;4.80;2.60;;;;;;;8.39;64.93;95695.41;108855;1271;22543;-74
2024/02/22 09:06:58;;;;;;;4.60;2.40;;;;;;;8.57;64.96;95692.45;108806;1271;22647;-74
2024/02/22 09:09:32;;;;;;;4.40;2.50;;;;;;;8.74;64.92;95687.98;108845;1268;22573;-74
2024/02/22 09:12:04;;;;;;;6.50;2.90;;;;;;;8.85;64.66;95681.27;108853;1259;22581;-74
2024/02/22 09:14:43;;;;;;;4.50;2.00;;;;;;;8.92;64.85;95676.45;108884;1271;25416;-74
2024/02/22 09:17:14;;;;;;;4.80;2.70;;;;;;;9.08;64.07;95673.88;108815;1271;22534;-74
2024/02/22 09:19:51;;;;;;;3.80;2.40;;;;;;;9.23;64.04;95670.27;108856;1271;22609;-74
2024/02/22 09:22:29;;;;;;;6.00;2.60;;;;;;;9.41;63.86;95663.80;108878;1271;22576;-74
2024/02/22 09:25:06;;;;;;;4.10;2.50;;;;;;;9.46;62.56;95655.78;108889;1268;22624;-74
2024/02/22 09:27:37;;;;;;;4.70;2.30;;;;;;;9.48;62.55;95655.20;108887;1271;22524;-74
2024/02/22 09:30:22;;;;;;;4.80;2.30;;;;;;;9.54;61.93;95647.20;108864;1271;22656;-74
2024/02/22 09:32:57;;;;;;;5.10;2.90;;;;;;;9.55;61.62;95646.77;108793;1266;22538;-74
2024/02/22 09:35:31;;;;;;;4.20;2.30;;;;;;;9.61;61.54;95637.61;108753;1273;22529;-74
2024/02/22 09:38:07;;;;;;;5.20;2.30;;;;;;;9.67;60.88;95634.42;108821;1273;22742;-74
2024/02/22 09:40:39;;;;;;;5.50;2.30;;;;;;;9.73;61.14;95625.39;108733;1273;22551;-74
2024/02/22 09:43:17;;;;;;;5.60;2.20;;;;;;;9.85;61.15;95627.32;108796;1270;22600;-75
2024/02/22 09:45:53;;;;;;;4.10;2.60;;;;;;;9.90;60.61;95619.17;108823;1273;23874;-75
2024/02/22 09:48:26;;;;;;;3.60;2.40;;;;;;;10.02;61.09;95619.64;108848;1273;22553;-74
2024/02/22 09:51:01;;;;;;;4.40;2.50;;;;;;;10.11;60.93;95614.36;108762;1273;22524;-74
2024/02/22 09:53:37;;;;;;;3.50;1.80;;;;;;;10.23;60.84;95608.60;108817;1273;22536;-74
2024/02/22 09:56:16;;;;;;;3.90;2.50;;;;;;;10.30;60.92;95607.55;108822;1273;22559;-74
2024/02/22 09:58:53;;;;;;;5.30;2.40;;;;;;;10.43;61.08;95600.35;108779;1253;25438;-75
2024/02/22 10:01:35;;;;;;;6.80;2.50;;;;;;;10.55;60.82;95597.25;108827;1273;23988;-74
2024/02/22 10:04:16;;;;;;;3.60;2.00;;;;;;;10.73;61.06;95589.45;108795;1270;22600;-74
2024/02/22 10:07:00;;;;;;;5.90;2.20;;;;;;;10.96;61.09;95580.41;108822;1273;22558;-75
2024/02/22 10:09:42;;;;;;;5.40;2.30;;;;;;;11.15;61.03;95577.38;108777;1273;22672;-75
2024/02/22 10:12:26;;;;;;;4.10;1.80;;;;;;;11.27;60.77;95576.67;108772;1267;22530;-74
2024/02/22 10:14:59;;;;;;;3.40;2.20;;;;;;;11.37;60.63;95571.54;108809;1273;22664;-75
2024/02/22 10:17:31;;;;;;;3.60;2.20;;;;;;;11.46;60.47;95565.61;108768;1270;22516;-75
2024/02/22 10:20:13;;;;;;;5.00;2.70;;;;;;;11.37;60.10;95562.70;108799;1267;22897;-74
2024/02/22 10:22:51;;;;;;;4.90;2.30;;;;;;;11.49;60.05;95555.90;108828;1266;22536;-74
2024/02/22 10:25:25;;;;;;;3.90;2.10;;;;;;;11.58;60.10;95543.71;108778;1273;22567;-74
2024/02/22 10:27:57;;;;;;;3.90;2.30;;;;;;;11.73;60.21;95537.89;108835;1267;22531;-74
2024/02/22 10:30:33;;;;;;;4.20;2.40;;;;;;;11.75;59.81;95532.90;108773;1273;25314;-75
2024/02/22 10:33:10;;;;;;;6.00;2.20;;;;;;;11.78;59.72;95525.96;108733;1265;22546;-74
2024/02/22 10:35:44;;;;;;;5.00;2.50;;;;;;;11.98;59.87;95511.71;108873;1265;25381;-74
2024/02/22 10:38:19;;;;;;;5.00;2.20;;;;;;;12.08;59.66;95504.75;108769;1273;24334;-74
2024/02/22 10:40:52;;;;;;;3.20;2.00;;;;;;;12.09;59.44;95499.11;108759;1265;23027;-74
2024/02/22 10:43:30;;;;;;;3.50;2.40;;;;;;;12.08;58.29;95494.30;108782;1250;22524;-74
2024/02/22 10:46:11;;;;;;;3.10;2.10;;;;;;;11.89;57.07;95482.16;108807;1273;25401;-74
2024/02/22 10:48:51;;;;;;;4.80;2.20;;;;;;;11.71;57.06;95480.38;108786;1265;23702;-74
2024/02/22 10:51:25;;;;;;;4.10;2.60;;;;;;;11.63;57.15;95480.91;108708;1265;22664;-74
2024/02/22 10:53:59;;;;;;;5.00;2.70;;;;;;;11.69;57.56;95476.73;108770;1273;22616;-74
2024/02/22 10:56:37;;;;;;;6.00;2.30;;;;;;;11.80;57.96;95469.73;108781;1273;25410;-74
2024/02/22 10:59:12;;;;;;;3.60;2.10;;;;;;;11.84;57.86;95463.98;108745;1269;25437;-74
2024/02/22 11:01:45;;;;;;;4.40;2.30;;;;;;;11.80;57.67;95461.66;108800;1273;22629;-74
2024/02/22 11:04:17;;;;;;;4.80;2.50;;;;;;;11.79;57.62;95455.09;108775;1267;24255;-74
2024/02/22 11:06:50;;;;;;;2.60;2.20;;;;;;;11.77;57.78;95454.65;108779;1267;22528;-74
2024/02/22 11:09:25;;;;;;;5.10;2.60;;;;;;;11.75;57.80;95449.90;108758;1273;22543;-74
2024/02/22 11:12:09;;;;;;;3.60;2.30;;;;;;;11.77;58.04;95440.80;108773;1270;22517;-74
2024/02/22 11:14:43;;;;;;;5.50;2.90;;;;;;;11.80;58.37;95444.28;108793;1264;23749;-74
2024/02/22 11:17:26;;;;;;;4.20;2.50;;;;;;;11.82;58.21;95443.48;108787;1273;25401;-75
2024/02/22 11:20:11;;;;;;;4.50;2.30;;;;;;;11.80;58.12;95437.02;108634;1267;24015;-74
2024/02/22 11:22:45;;;;;;;6.00;2.50;;;;;;;11.82;58.42;95429.98;108449;1272;23760;-74
2024/02/22 11:25:18;;;;;;;6.60;2.90;;;;;;;11.88;58.52;95419.77;108562;1267;23915;-74
2024/02/22 11:28:02;;;;;;;25.00;13.10;;;;;;;11.93;58.35;95417.59;108760;1273;25478;-75
2024/02/22 11:30:44;;;;;;;7.00;3.70;;;;;;;11.93;58.30;95409.78;108769;1272;22517;-75
2024/02/22 11:33:22;;;;;;;4.90;3.10;;;;;;;11.85;57.90;95408.48;108685;1267;22545;-75
2024/02/22 11:35:57;;;;;;;5.90;2.70;;;;;;;11.80;57.86;95405.74;108758;1273;22541;-75
2024/02/22 11:38:37;;;;;;;5.80;3.30;;;;;;;11.82;57.97;95404.34;108791;1273;22661;-75
2024/02/22 11:41:12;;;;;;;4.50;2.90;;;;;;;11.81;57.70;95394.34;108630;1268;25445;-75
2024/02/22 11:43:44;;;;;;;4.80;2.80;;;;;;;11.72;56.92;95386.12;108701;1273;24244;-75
2024/02/22 11:46:17;;;;;;;4.40;2.70;;;;;;;11.62;56.54;95388.56;108638;1266;22539;-75
2024/02/22 11:48:49;;;;;;;7.50;3.30;;;;;;;11.52;56.39;95387.53;108788;1272;22560;-75
2024/02/22 11:51:23;;;;;;;6.10;3.40;;;;;;;11.50;56.37;95377.67;108634;1273;22636;-72
2024/02/22 11:54:01;;;;;;;5.70;3.70;;;;;;;11.51;56.56;95371.20;109707;1268;25298;-76
2024/02/22 11:56:36;;;;;;;6.10;3.10;;;;;;;11.54;56.78;95369.43;108689;1265;22583;-76
2024/02/22 11:59:09;;;;;;;5.50;2.70;;;;;;;11.52;56.74;95370.39;108797;1270;22516;-76
2024/02/22 12:01:42;;;;;;;6.30;3.00;;;;;;;11.48;57.11;95363.72;108900;1271;23831;-75
2024/02/22 12:04:14;;;;;;;4.40;2.90;;;;;;;11.44;57.43;95366.05;108858;1271;22999;-75
2024/02/22 12:06:47;;;;;;;3.90;2.90;;;;;;;11.46;57.79;95361.45;108892;1258;26425;-76